Flight Track Log - Related Links

Times and Time Zones

All times are in EDT time to prevent confusion due to time zone crossing. See the QTR52 flight status page for this flight to view local times or setup timezone preferences in your user account.

Time Position Orientation Groundspeed Altitude Reporting Facility
EDT Latitude Longitude Course Direction KTS MPH feet Rate Location/Type
Thu 11:06:33 PM 38.9500 -77.5000 333° Northwest 200 230 1,300  Level Potomac TRACON
Thu 11:07:33 PM 39.0000 -77.5333 333° Northwest 240 276 2,700 1,700 Climbing Potomac TRACON
Thu 11:08:33 PM 39.0667 -77.4833 30° Northeast 280 322 4,700 2,000 Climbing Potomac TRACON
Thu 11:09:33 PM 39.1333 -77.4333 30° Northeast 305 351 6,700 1,842 Climbing Potomac TRACON
Thu 11:10:27 PM 39.2000 -77.3500 44° Northeast 361 415 8,200 2,090 Climbing Potomac TRACON
Thu 11:12:54 PM 39.3192 -77.0725 61° Northeast 387 445 13,700 2,174 Climbing Washington Center
Thu 11:13:54 PM 39.3250 -76.9303 87° East 382 440 15,700 1,950 Climbing Washington Center
Thu 11:14:54 PM 39.3056 -76.7772 99° East 389 448 17,600 1,815 Climbing Washington Center
Thu 11:15:53 PM 39.2842 -76.6211 100° East 419 482 19,300 1,736 Climbing Washington Center
Thu 11:16:55 PM 39.2625 -76.4600 100° East 442 509 21,100 1,650 Climbing Washington Center
Thu 11:17:53 PM 39.2678 -76.2967 88° East 450 518 22,600 1,525 Climbing Washington Center
Thu 11:18:53 PM 39.3497 -76.1497 54° Northeast 428 493 24,100 1,475 Climbing Washington Center
Thu 11:19:55 PM 39.4317 -76.0189 51° Northeast 433 498 25,600 1,388 Climbing Washington Center
Thu 11:20:54 PM 39.5050 -75.8794 56° Northeast 457 526 26,900 1,210 Climbing Washington Center
Thu 11:21:54 PM 39.5781 -75.7369 56° Northeast 471 542 28,000 1,050 Climbing Washington Center
Thu 11:22:54 PM 39.6636 -75.5997 51° Northeast 476 548 29,000 496 Climbing Washington Center
Thu 11:23:55 PM 39.7572 -75.4756 46° Northeast 476 548 29,000  Level Washington Center
Thu 11:24:55 PM 39.8486 -75.3511 46° Northeast 476 548 29,000 -46 Level Washington Center
Thu 11:26:05 PM 39.9517 -75.1847 51° Northeast 484 557 28,900  Descending New York Center
Thu 11:31:47 PM 40.4699 -74.4398 51° Northeast 480 552 29,000 15 Climbing FlightAware ADS-B
Thu 11:32:37 PM 40.5508 -74.3406 43° Northeast 480 552 29,000  Level FlightAware ADS-B
Thu 11:34:56 PM 40.7737 -74.0645 43° Northeast 475 547 29,000  Level FlightAware ADS-B
Thu 11:35:33 PM 40.8328 -73.9910 43° Northeast 475 547 29,000  Level FlightAware ADS-B
Thu 11:36:03 PM 40.8813 -73.9307 43° Northeast 473 544 29,000  Level FlightAware ADS-B
Thu 11:36:57 PM 40.9662 -73.8245 43° Northeast 473 544 29,000  Level FlightAware ADS-B
Thu 11:37:15 PM 40.9897 -73.8011 43° Northeast 464 534 29,000 -77 Level Boston Center
Thu 11:38:15 PM 41.0847 -73.6792 44° Northeast 464 534 28,900  Descending Boston Center
Thu 11:39:15 PM 41.1797 -73.5625 43° Northeast 464 534 29,000 50 Climbing Boston Center
Thu 11:40:15 PM 41.2747 -73.4400 44° Northeast 464 534 29,000  Level Boston Center
Thu 11:41:15 PM 41.3694 -73.3197 44° Northeast 464 534 29,000 -50 Level Boston Center
Thu 11:42:15 PM 41.4664 -73.1964 44° Northeast 464 534 28,900  Descending Boston Center
Thu 11:43:15 PM 41.5586 -73.0753 44° Northeast 459 528 29,000 50 Climbing Boston Center
Thu 11:44:15 PM 41.6553 -72.9514 44° Northeast 459 528 29,000  Level Boston Center
Thu 11:45:15 PM 41.7558 -72.8242 43° Northeast 465 535 29,000 -50 Level Boston Center
Thu 11:46:15 PM 41.8542 -72.6936 45° Northeast 477 549 28,900  Descending Boston Center
Thu 11:47:15 PM 41.9439 -72.5714 45° Northeast 477 549 29,000 50 Climbing Boston Center
Thu 11:48:15 PM 42.0419 -72.4456 44° Northeast 470 541 29,000  Level Boston Center
Thu 11:49:27 PM 42.1356 -72.3225 44° Northeast 470 541 29,000  Level Boston Center
Thu 11:50:27 PM 42.2397 -72.1850 44° Northeast 470 541 29,000  Level Boston Center
Thu 11:51:27 PM 42.3331 -72.0608 45° Northeast 470 541 29,000  Level Boston Center
Thu 11:52:27 PM 42.4283 -71.9367 44° Northeast 470 541 29,000  Level Boston Center
Thu 11:53:27 PM 42.5217 -71.8064 46° Northeast 475 547 29,000  Level Boston Center
Thu 11:54:27 PM 42.6189 -71.6811 43° Northeast 475 547 29,000  Level Boston Center
Thu 11:55:27 PM 42.7117 -71.5556 45° Northeast 475 547 29,000 -50 Level Boston Center
Thu 11:56:27 PM 42.8128 -71.4269 43° Northeast 482 555 28,900 -50 Descending Boston Center
Thu 11:57:27 PM 42.9033 -71.3006 46° Northeast 475 547 28,900  Level Boston Center
Thu 11:58:27 PM 42.9978 -71.1711 45° Northeast 468 539 28,900 50 Level Boston Center
Thu 11:59:27 PM 43.0900 -71.0383 46° Northeast 475 547 29,000  Climbing Boston Center
Fri 12:00:27 AM 43.1842 -70.9081 45° Northeast 475 547 28,900 -50 Descending Boston Center
Fri 12:01:27 AM 43.2864 -70.7658 45° Northeast 475 547 28,900 250 Level Boston Center
Fri 12:02:27 AM 43.3803 -70.6347 45° Northeast 470 541 29,400 750 Climbing Boston Center
Fri 12:03:27 AM 43.4739 -70.5061 45° Northeast 470 541 30,400 800 Climbing Boston Center
Fri 12:04:27 AM 43.5675 -70.3711 46° Northeast 470 541 31,000 300 Climbing Boston Center
Fri 12:05:27 AM 43.6567 -70.2419 46° Northeast 475 547 31,000  Level Boston Center
Fri 12:06:27 AM 43.7419 -70.1208 46° Northeast 468 539 31,000  Level Boston Center
Fri 12:07:27 AM 43.8431 -69.9703 47° Northeast 474 545 31,000  Level Boston Center
Fri 12:08:27 AM 43.9400 -69.8364 45° Northeast 481 554 31,000  Level Boston Center
Fri 12:09:27 AM 44.0347 -69.6994 46° Northeast 481 554 31,000  Level Boston Center
Fri 12:10:27 AM 44.1294 -69.5619 46° Northeast 481 554 31,000  Level Boston Center
Fri 12:11:27 AM 44.2258 -69.4211 46° Northeast 486 559 31,000  Level Boston Center
Fri 12:12:27 AM 44.3022 -69.3100 46° Northeast 486 559 31,000  Level Boston Center
Fri 12:13:27 AM 44.4164 -69.1439 46° Northeast 486 559 31,000  Level Boston Center
Fri 12:14:27 AM 44.5119 -68.9989 47° Northeast 486 559 31,000  Level Boston Center
Fri 12:15:27 AM 44.6078 -68.8561 47° Northeast 486 559 31,000  Level Boston Center
Fri 12:16:27 AM 44.7033 -68.7131 47° Northeast 486 559 31,000  Level Boston Center
Fri 12:17:27 AM 44.8006 -68.5692 46° Northeast 491 565 31,000  Level Boston Center
Fri 12:18:27 AM 44.8997 -68.4189 47° Northeast 501 577 31,000  Level Boston Center
Fri 12:19:27 AM 44.9986 -68.2683 47° Northeast 506 582 31,000  Level Boston Center
Fri 12:20:27 AM 45.0775 -68.1478 47° Northeast 506 582 31,000 -50 Level Boston Center
Fri 12:21:27 AM 45.1858 -67.9778 48° Northeast 511 588 30,900 -50 Descending Boston Center
Fri 12:22:27 AM 45.2861 -67.8256 47° Northeast 511 588 30,900 67 Level Boston Center
Fri 12:22:56 AM 45.3333 -67.7333 54° Northeast 530 610 31,000 100 Climbing Moncton Center
Fri 12:23:27 AM 45.3886 -67.6811 34° Northeast 511 588 31,000  Level Boston Center
Fri 12:23:56 AM 45.4333 -67.5833 57° Northeast 530 610 31,000  Level Moncton Center
Fri 12:24:56 AM 45.5333 -67.4500 43° Northeast 520 598 31,000  Level Moncton Center
Fri 12:25:56 AM 45.6333 -67.3167 43° Northeast 520 598 31,000  Level Moncton Center
Fri 12:26:56 AM 45.7500 -67.1833 39° Northeast 510 587 31,000  Level Moncton Center
Fri 12:27:56 AM 45.8667 -67.0333 42° Northeast 510 587 31,000  Level Moncton Center
Fri 12:28:56 AM 45.9667 -66.9000 43° Northeast 510 587 31,000  Level Moncton Center
Fri 12:29:56 AM 46.0667 -66.7667 43° Northeast 510 587 31,000  Level Moncton Center
Fri 12:30:56 AM 46.1500 -66.6167 51° Northeast 510 587 31,000  Level Moncton Center
Fri 12:31:56 AM 46.2667 -66.4833 38° Northeast 510 587 31,000  Level Moncton Center
Fri 12:32:56 AM 46.3667 -66.3333 46° Northeast 500 575 31,000  Level Moncton Center
Fri 12:33:56 AM 46.4833 -66.2000 38° Northeast 510 587 31,000  Level Moncton Center
Fri 12:34:56 AM 46.5667 -66.0500 51° Northeast 510 587 31,000  Level Moncton Center
Fri 12:35:56 AM 46.6833 -65.9167 38° Northeast 510 587 31,000  Level Moncton Center
Fri 12:36:56 AM 46.7667 -65.7667 51° Northeast 510 587 31,000  Level Moncton Center
Fri 12:37:56 AM 46.8667 -65.6167 46° Northeast 510 587 31,000  Level Moncton Center
Fri 12:38:56 AM 47.0000 -65.4500 40° Northeast 520 598 31,000  Level Moncton Center
Fri 12:39:56 AM 47.1000 -65.3000 46° Northeast 520 598 31,000  Level Moncton Center
Fri 12:40:56 AM 47.2000 -65.1667 42° Northeast 530 610 31,000  Level Moncton Center
Fri 12:41:56 AM 47.3000 -65.0167 45° Northeast 530 610 31,000  Level Moncton Center
Fri 12:42:56 AM 47.4167 -64.8500 44° Northeast 530 610 31,000  Level Moncton Center
Fri 12:43:56 AM 47.5167 -64.7000 45° Northeast 530 610 31,000  Level Moncton Center
Fri 12:44:56 AM 47.6167 -64.5500 45° Northeast 530 610 31,000  Level Moncton Center
Fri 12:45:56 AM 47.7167 -64.4000 45° Northeast 520 598 31,000  Level Moncton Center
Fri 12:46:56 AM 47.8167 -64.2500 45° Northeast 520 598 31,000  Level Moncton Center
Fri 12:47:56 AM 47.9167 -64.1000 45° Northeast 520 598 31,000  Level Moncton Center
Fri 12:48:15 AM 47.9667 -64.0333 42° Northeast 520 598 31,000  Level Gander Center
Fri 12:49:15 AM 48.0500 -63.8833 50° Northeast 520 598 31,000  Level Gander Center
Fri 12:49:56 AM 48.1333 -63.7667 43° Northeast 520 598 31,000  Level Moncton Center
Fri 12:50:56 AM 48.2333 -63.6167 45° Northeast 530 610 31,000  Level Moncton Center
Fri 12:51:56 AM 48.3333 -63.4667 45° Northeast 530 610 31,000  Level Moncton Center
Fri 12:52:56 AM 48.4333 -63.3167 45° Northeast 530 610 31,000  Level Moncton Center
Fri 12:53:56 AM 48.5333 -63.1500 48° Northeast 530 610 31,000  Level Moncton Center
Fri 12:54:15 AM 48.5667 -63.1000 45° Northeast 530 610 31,000  Level Gander Center
Fri 12:55:15 AM 48.6667 -62.9333 48° Northeast 530 610 31,000  Level Gander Center
Fri 12:55:56 AM 48.7500 -62.8167 43° Northeast 530 610 31,000  Level Moncton Center
Fri 12:56:56 AM 48.8500 -62.6667 45° Northeast 520 598 31,000  Level Moncton Center
Fri 12:57:56 AM 48.9333 -62.5167 50° Northeast 520 598 31,000  Level Moncton Center
Fri 12:58:15 AM 48.9833 -62.4500 41° Northeast 520 598 31,000  Level Gander Center
Fri 12:58:56 AM 49.0333 -62.3333 57° Northeast 520 598 31,000  Level Moncton Center
Fri 12:59:56 AM 49.1333 -62.1667 47° Northeast 520 598 31,000  Level Moncton Center
Fri 01:00:15 AM 49.1833 -62.1333 24° Northeast 520 598 31,000  Level Gander Center
Fri 01:00:56 AM 49.2500 -62.0167 49° Northeast 520 598 31,000  Level Moncton Center
Fri 01:01:56 AM 49.3333 -61.8500 52° Northeast 510 587 31,000  Level Moncton Center
Fri 01:02:15 AM 49.3667 -61.8000 44° Northeast 520 598 31,000  Level Gander Center
Fri 01:02:56 AM 49.4500 -61.7000 38° Northeast 520 598 31,000  Level Moncton Center
Fri 01:03:56 AM 49.5167 -61.5333 58° Northeast 520 598 31,000  Level Moncton Center
Fri 01:04:15 AM 49.5667 -61.4833 33° Northeast 520 598 31,000  Level Gander Center
Fri 01:05:15 AM 49.6667 -61.3000 50° Northeast 530 610 31,000  Level Gander Center
Fri 01:06:15 AM 49.7667 -61.1500 44° Northeast 520 598 31,000  Level Gander Center
Fri 01:06:56 AM 49.8333 -61.0167 52° Northeast 530 610 31,000  Level Moncton Center
Fri 01:07:56 AM 49.9167 -60.8667 49° Northeast 520 598 31,000  Level Moncton Center
Fri 01:08:15 AM 49.9500 -60.8167 44° Northeast 530 610 31,000  Level Gander Center
Fri 01:09:15 AM 50.0667 -60.6333 45° Northeast 520 598 31,000  Level Gander Center
Fri 01:09:56 AM 50.1333 -60.5333 44° Northeast 520 598 31,000  Level Moncton Center
Fri 01:10:56 AM 50.2167 -60.3667 52° Northeast 520 598 31,000  Level Moncton Center
Fri 01:11:15 AM 50.2500 -60.3167 44° Northeast 520 598 31,000  Level Gander Center
Fri 01:12:15 AM 50.3500 -60.1333 49° Northeast 520 598 31,000  Level Gander Center
Fri 01:13:15 AM 50.4500 -59.9667 47° Northeast 520 598 31,000  Level Gander Center
Fri 01:14:56 AM 50.6000 -59.6667 52° Northeast 520 598 31,000  Level Moncton Center
Fri 01:15:15 AM 50.6500 -59.6167 32° Northeast 520 598 31,000  Level Gander Center
Fri 01:16:15 AM 50.7333 -59.4333 54° Northeast 520 598 31,000  Level Gander Center
Fri 01:16:56 AM 50.7833 -59.3333 52° Northeast 520 598 31,000  Level Moncton Center
Fri 01:17:56 AM 50.9000 -59.1333 47° Northeast 520 598 31,000  Level Moncton Center
Fri 01:18:14 AM 50.9167 -59.1000 52° Northeast 520 598 31,000  Level Gander Center
Fri 01:18:56 AM 50.9833 -58.9667 52° Northeast 530 610 31,000  Level Moncton Center
Fri 01:19:56 AM 51.0833 -58.8000 46° Northeast 520 598 31,000  Level Moncton Center
Fri 01:20:14 AM 51.1167 -58.7500 43° Northeast 530 610 31,000  Level Gander Center
Fri 01:21:15 AM 51.2000 -58.5667 54° Northeast 530 610 31,000  Level Gander Center
Fri 01:22:15 AM 51.3000 -58.4000 46° Northeast 530 610 31,000  Level Gander Center
Fri 01:22:56 AM 51.3833 -58.2500 48° Northeast 530 610 31,000  Level Moncton Center
Fri 01:23:56 AM 51.4667 -58.0833 51° Northeast 530 610 31,000  Level Moncton Center
Fri 01:24:14 AM 51.5000 -58.0333 43° Northeast 530 610 31,000  Level Gander Center
Fri 01:25:14 AM 51.5833 -57.8333 56° Northeast 530 610 31,000  Level Gander Center
Fri 01:25:56 AM 51.6500 -57.7333 43° Northeast 530 610 31,000  Level Moncton Center
Fri 01:26:56 AM 51.7500 -57.5333 51° Northeast 530 610 31,000  Level Moncton Center
Fri 01:27:56 AM 51.8500 -57.3500 49° Northeast 530 610 31,000  Level Moncton Center
Fri 01:28:56 AM 51.9500 -57.1500 51° Northeast 530 610 31,000  Level Moncton Center
Fri 01:29:15 AM 51.9667 -57.1000 62° Northeast 530 610 31,000  Level Gander Center
Fri 01:30:56 AM 52.1333 -56.7833 49° Northeast 530 610 31,000  Level Moncton Center
Fri 01:31:56 AM 52.2167 -56.6000 53° Northeast 540 621 31,000  Level Moncton Center
Fri 01:32:15 AM 52.2500 -56.5333 51° Northeast 530 610 31,000  Level Gander Center
Fri 01:33:15 AM 52.3167 -56.3333 61° Northeast 540 621 31,000  Level Gander Center
Fri 01:33:56 AM 52.3667 -56.1667 64° Northeast 540 621 31,000  Level Moncton Center
Fri 01:34:56 AM 52.4500 -55.9667 56° Northeast 540 621 31,000  Level Moncton Center
Fri 01:35:56 AM 52.5167 -55.7333 65° Northeast 540 621 31,000 76 Level Moncton Center
Fri 01:36:15 AM 52.5500 -55.6667 51° Northeast 540 621 31,100 500 Climbing Gander Center
Fri 01:36:56 AM 52.5833 -55.5167 70° East 540 621 31,500 535 Climbing Moncton Center
Fri 01:37:56 AM 52.6667 -55.3167 55° Northeast 540 621 32,000 250 Climbing Moncton Center
Fri 01:38:56 AM 52.7333 -55.1000 63° Northeast 540 621 32,000  Level Moncton Center
Fri 01:39:15 AM 52.7667 -55.0333 50° Northeast 540 621 32,000  Level Gander Center
Fri 01:40:15 AM 52.8167 -54.8333 67° East 540 621 32,000  Level Gander Center
Fri 01:41:14 AM 52.9000 -54.6000 59° Northeast 540 621 32,000  Level Gander Center
Fri 01:42:14 AM 52.9667 -54.3833 63° Northeast 540 621 32,000  Level Gander Center
Fri 01:43:14 AM 53.0333 -54.1500 65° Northeast 550 633 32,000  Level Gander Center
Fri 01:44:15 AM 53.1000 -53.9167 64° Northeast 550 633 32,000  Level Gander Center
Fri 01:45:15 AM 53.1500 -53.6833 70° East 550 633 32,000  Level Gander Center
Fri 01:46:15 AM 53.2167 -53.4500 64° Northeast 550 633 32,000  Level Gander Center
Fri 01:47:15 AM 53.2667 -53.2167 70° East 550 633 32,000  Level Gander Center
Fri 01:48:15 AM 53.3333 -52.9833 64° Northeast 550 633 32,000  Level Gander Center
Fri 01:49:15 AM 53.3833 -52.7500 70° East 550 633 32,000  Level Gander Center
Fri 01:50:15 AM 53.4333 -52.4833 72° East 550 633 32,000  Level Gander Center
Fri 01:51:15 AM 53.5000 -52.2500 64° Northeast 560 644 32,000  Level Gander Center
Fri 01:52:15 AM 53.5500 -52.0167 70° East 550 633 32,000  Level Gander Center
Fri 01:53:15 AM 53.6167 -51.7667 66° East 560 644 32,000  Level Gander Center
Fri 01:54:15 AM 53.6500 -51.5333 76° East 560 644 32,000  Level Gander Center
Fri 01:55:15 AM 53.7167 -51.2833 66° East 550 633 32,000  Level Gander Center
Fri 01:56:15 AM 53.7667 -51.0500 70° East 560 644 32,000  Level Gander Center
Fri 01:57:15 AM 53.8167 -50.7833 72° East 560 644 32,000  Level Gander Center
Fri 01:58:14 AM 53.8833 -50.5333 66° East 550 633 32,000  Level Gander Center
Fri 01:59:14 AM 53.9167 -50.3000 76° East 550 633 32,000  Level Gander Center
Fri 02:00:15 AM 53.9333 -50.0333 84° East 550 633 32,000 -4 Level Gander Center
Fri 02:03:00 AM 54.0358 -49.6520 76° East  Level FlightAware Approximate
Fri 02:10:00 AM 54.2610 -48.0183 76° East  Level FlightAware Approximate
Fri 02:11:00 AM 54.2914 -47.7835 77° East  Level FlightAware Approximate
Fri 02:12:00 AM 54.3213 -47.5484 78° East  Level FlightAware Approximate
Fri 02:13:00 AM 54.3507 -47.3129 78° East  Level FlightAware Approximate
Fri 02:14:00 AM 54.3792 -47.0769 79° East  Level FlightAware Approximate
Fri 02:15:00 AM 54.4066 -46.8403 79° East  Level FlightAware Approximate
Fri 02:16:00 AM 54.4335 -46.6035 79° East  Level FlightAware Approximate
Fri 02:17:00 AM 54.4600 -46.3663 79° East  Level FlightAware Approximate
Fri 02:18:00 AM 54.4860 -46.1289 79° East  Level FlightAware Approximate
Fri 02:19:00 AM 54.5115 -45.8911 79° East  Level FlightAware Approximate
Fri 02:20:00 AM 54.5366 -45.6530 80° East  Level FlightAware Approximate
Fri 02:21:00 AM 54.5612 -45.4147 80° East  Level FlightAware Approximate
Fri 02:22:00 AM 54.5854 -45.1761 80° East  Level FlightAware Approximate
Fri 02:23:00 AM 54.6091 -44.9371 80° East  Level FlightAware Approximate
Fri 02:24:00 AM 54.6323 -44.6980 80° East  Level FlightAware Approximate
Fri 02:25:00 AM 54.6550 -44.4585 81° East  Level FlightAware Approximate
Fri 02:26:00 AM 54.6775 -44.2188 81° East  Level FlightAware Approximate
Fri 02:27:00 AM 54.7000 -43.9790 81° East  Level FlightAware Approximate
Fri 02:28:00 AM 54.7219 -43.7389 81° East  Level FlightAware Approximate
Fri 02:29:00 AM 54.7434 -43.4986 81° East  Level FlightAware Approximate
Fri 02:30:00 AM 54.7643 -43.2580 81° East  Level FlightAware Approximate
Fri 02:31:00 AM 54.7849 -43.0172 82° East  Level FlightAware Approximate
Fri 02:32:00 AM 54.8049 -42.7761 82° East  Level FlightAware Approximate
Fri 02:33:00 AM 54.8244 -42.5348 82° East  Level FlightAware Approximate
Fri 02:34:00 AM 54.8435 -42.2933 82° East  Level FlightAware Approximate
Fri 02:35:00 AM 54.8621 -42.0515 82° East  Level FlightAware Approximate
Fri 02:36:00 AM 54.8802 -41.8095 82° East  Level FlightAware Approximate
Fri 02:37:00 AM 54.8979 -41.5673 83° East  Level FlightAware Approximate
Fri 02:38:00 AM 54.9150 -41.3249 83° East  Level FlightAware Approximate
Fri 02:39:00 AM 54.9317 -41.0823 83° East  Level FlightAware Approximate
Fri 02:40:00 AM 54.9479 -40.8395 83° East  Level FlightAware Approximate
Fri 02:41:00 AM 54.9636 -40.5965 83° East  Level FlightAware Approximate
Fri 02:42:00 AM 54.9788 -40.3533 84° East  Level FlightAware Approximate
Fri 02:43:00 AM 54.9935 -40.1099 84° East  Level FlightAware Approximate
Fri 02:44:00 AM 54.9921 -39.8664 96° East  Level FlightAware Approximate
Fri 02:45:00 AM 54.9775 -39.6230 96° East  Level FlightAware Approximate
Fri 02:46:00 AM 54.9623 -39.3798 96° East  Level FlightAware Approximate
Fri 02:47:00 AM 54.9466 -39.1368 96° East  Level FlightAware Approximate
Fri 02:48:00 AM 54.9305 -38.8940 97° East  Level FlightAware Approximate
Fri 02:49:00 AM 54.9138 -38.6514 97° East  Level FlightAware Approximate
Fri 02:50:00 AM 54.8967 -38.4090 97° East  Level FlightAware Approximate
Fri 02:51:00 AM 54.8791 -38.1668 97° East  Level FlightAware Approximate
Fri 02:52:00 AM 54.8611 -37.9248 97° East  Level FlightAware Approximate
Fri 02:53:00 AM 54.8425 -37.6830 97° East  Level FlightAware Approximate
Fri 02:54:00 AM 54.8235 -37.4415 98° East  Level FlightAware Approximate
Fri 02:55:00 AM 54.8040 -37.2001 98° East  Level FlightAware Approximate
Fri 02:56:00 AM 54.7840 -36.9591 98° East  Level FlightAware Approximate
Fri 02:57:00 AM 54.7635 -36.7182 98° East  Level FlightAware Approximate
Fri 02:58:00 AM 54.7425 -36.4776 98° East  Level FlightAware Approximate
Fri 02:59:00 AM 54.7211 -36.2373 99° East  Level FlightAware Approximate
Fri 03:00:00 AM 54.6992 -35.9972 99° East  Level FlightAware Approximate
Fri 03:01:00 AM 54.6768 -35.7574 99° East  Level FlightAware Approximate
Fri 03:02:00 AM 54.6543 -35.5177 99° East  Level FlightAware Approximate
Fri 03:03:00 AM 54.6315 -35.2783 99° East  Level FlightAware Approximate
Fri 03:04:00 AM 54.6082 -35.0391 99° East  Level FlightAware Approximate
Fri 03:05:00 AM 54.5845 -34.8003 100° East  Level FlightAware Approximate
Fri 03:06:00 AM 54.5603 -34.5616 100° East  Level FlightAware Approximate
Fri 03:07:00 AM 54.5356 -34.3233 100° East  Level FlightAware Approximate
Fri 03:08:00 AM 54.5105 -34.0853 100° East  Level FlightAware Approximate
Fri 03:09:00 AM 54.4849 -33.8475 100° East  Level FlightAware Approximate
Fri 03:10:00 AM 54.4588 -33.6101 101° East  Level FlightAware Approximate
Fri 03:11:00 AM 54.4323 -33.3730 101° East  Level FlightAware Approximate
Fri 03:12:00 AM 54.4053 -33.1362 101° East  Level FlightAware Approximate
Fri 03:13:00 AM 54.3778 -32.8997 101° East  Level FlightAware Approximate
Fri 03:14:00 AM 54.3499 -32.6635 101° East  Level FlightAware Approximate
Fri 03:15:00 AM 54.3215 -32.4276 102° East  Level FlightAware Approximate
Fri 03:16:00 AM 54.2926 -32.1921 102° East  Level FlightAware Approximate
Fri 03:17:00 AM 54.2633 -31.9568 102° East  Level FlightAware Approximate
Fri 03:18:00 AM 54.2336 -31.7220 102° East  Level FlightAware Approximate
Fri 03:19:00 AM 54.2034 -31.4874 102° East  Level FlightAware Approximate
Fri 03:20:00 AM 54.1727 -31.2533 103° East  Level FlightAware Approximate
Fri 03:21:00 AM 54.1416 -31.0194 103° East  Level FlightAware Approximate
Fri 03:22:00 AM 54.1100 -30.7859 103° East  Level FlightAware Approximate
Fri 03:23:00 AM 54.0779 -30.5528 103° East  Level FlightAware Approximate
Fri 03:24:00 AM 54.0455 -30.3201 103° East  Level FlightAware Approximate
Fri 03:25:00 AM 54.0126 -30.0877 103° East  Level FlightAware Approximate
Fri 03:26:00 AM 53.9915 -29.8521 95° East  Level FlightAware Approximate
Fri 03:27:00 AM 53.9776 -29.6144 96° East  Level FlightAware Approximate
Fri 03:28:00 AM 53.9631 -29.3770 96° East  Level FlightAware Approximate
Fri 03:29:00 AM 53.9482 -29.1397 96° East  Level FlightAware Approximate
Fri 03:30:00 AM 53.9328 -28.9026 96° East  Level FlightAware Approximate
Fri 03:31:00 AM 53.9170 -28.6656 96° East  Level FlightAware Approximate
Fri 03:32:00 AM 53.9007 -28.4289 97° East  Level FlightAware Approximate
Fri 03:33:00 AM 53.8839 -28.1923 97° East  Level FlightAware Approximate
Fri 03:34:00 AM 53.8666 -27.9559 97° East  Level FlightAware Approximate
Fri 03:35:00 AM 53.8489 -27.7197 97° East  Level FlightAware Approximate
Fri 03:36:00 AM 53.8308 -27.4837 97° East  Level FlightAware Approximate
Fri 03:37:00 AM 53.8121 -27.2480 98° East  Level FlightAware Approximate
Fri 03:38:00 AM 53.7930 -27.0124 98° East  Level FlightAware Approximate
Fri 03:39:00 AM 53.7735 -26.7771 98° East  Level FlightAware Approximate
Fri 03:40:00 AM 53.7535 -26.5420 98° East  Level FlightAware Approximate
Fri 03:41:00 AM 53.7330 -26.3071 98° East  Level FlightAware Approximate
Fri 03:42:00 AM 53.7121 -26.0724 98° East  Level FlightAware Approximate
Fri 03:43:00 AM 53.6907 -25.8380 99° East  Level FlightAware Approximate
Fri 03:44:00 AM 53.6688 -25.6038 99° East  Level FlightAware Approximate
Fri 03:45:00 AM 53.6465 -25.3699 99° East  Level FlightAware Approximate
Fri 03:46:00 AM 53.6238 -25.1362 99° East  Level FlightAware Approximate
Fri 03:47:00 AM 53.6006 -24.9027 99° East  Level FlightAware Approximate
Fri 03:48:00 AM 53.5769 -24.6695 100° East  Level FlightAware Approximate
Fri 03:49:00 AM 53.5528 -24.4366 100° East  Level FlightAware Approximate
Fri 03:50:00 AM 53.5282 -24.2040 100° East  Level FlightAware Approximate
Fri 03:51:00 AM 53.5032 -23.9716 100° East  Level FlightAware Approximate
Fri 03:52:00 AM 53.4777 -23.7395 100° East  Level FlightAware Approximate
Fri 03:53:00 AM 53.4518 -23.5077 101° East  Level FlightAware Approximate
Fri 03:54:00 AM 53.4254 -23.2762 101° East  Level FlightAware Approximate
Fri 03:55:00 AM 53.3986 -23.0449 101° East  Level FlightAware Approximate
Fri 03:56:00 AM 53.3713 -22.8140 101° East  Level FlightAware Approximate
Fri 03:57:00 AM 53.3436 -22.5833 101° East  Level FlightAware Approximate
Fri 03:58:00 AM 53.3154 -22.3530 101° East  Level FlightAware Approximate
Fri 03:59:00 AM 53.2868 -22.1229 102° East  Level FlightAware Approximate
Fri 04:00:00 AM 53.2578 -21.8932 102° East  Level FlightAware Approximate
Fri 04:01:00 AM 53.2283 -21.6638 102° East  Level FlightAware Approximate
Fri 04:02:00 AM 53.1984 -21.4347 102° East  Level FlightAware Approximate
Fri 04:03:00 AM 53.1680 -21.2059 102° East  Level FlightAware Approximate
Fri 04:04:00 AM 53.1372 -20.9775 103° East  Level FlightAware Approximate
Fri 04:05:00 AM 53.1060 -20.7493 103° East  Level FlightAware Approximate
Fri 04:06:00 AM 53.0743 -20.5215 103° East  Level FlightAware Approximate
Fri 04:07:00 AM 53.0422 -20.2941 103° East  Level FlightAware Approximate
Fri 04:08:00 AM 53.0097 -20.0670 103° East  Level FlightAware Approximate
Fri 04:09:00 AM 52.9995 -19.8356 90° East  Level FlightAware Approximate
Fri 04:10:00 AM 52.9984 -19.6023 90° East  Level FlightAware Approximate
Fri 04:11:00 AM 52.9969 -19.3690 91° East  Level FlightAware Approximate
Fri 04:12:00 AM 52.9949 -19.1357 91° East  Level FlightAware Approximate
Fri 04:13:00 AM 52.9924 -18.9025 91° East  Level FlightAware Approximate
Fri 04:14:00 AM 52.9895 -18.6693 91° East  Level FlightAware Approximate
Fri 04:15:00 AM 52.9861 -18.4361 91° East  Level FlightAware Approximate
Fri 04:16:00 AM 52.9823 -18.2029 91° East  Level FlightAware Approximate
Fri 04:17:00 AM 52.9780 -17.9698 92° East  Level FlightAware Approximate
Fri 04:18:00 AM 52.9733 -17.7367 92° East  Level FlightAware Approximate
Fri 04:19:00 AM 52.9681 -17.5037 92° East  Level FlightAware Approximate
Fri 04:20:00 AM 52.9624 -17.2708 92° East  Level FlightAware Approximate
Fri 04:21:00 AM 52.9563 -17.0379 92° East  Level FlightAware Approximate
Fri 04:22:00 AM 52.9497 -16.8051 93° East  Level FlightAware Approximate
Fri 04:23:00 AM 52.9427 -16.5723 93° East  Level FlightAware Approximate
Fri 04:24:00 AM 52.9353 -16.3397 93° East  Level FlightAware Approximate
Fri 04:25:00 AM 52.9273 -16.1071 93° East  Level FlightAware Approximate
Fri 04:26:00 AM 52.9189 -15.8746 93° East  Level FlightAware Approximate
Fri 04:27:00 AM 52.9101 -15.6422 94° East  Level FlightAware Approximate
Fri 04:28:00 AM 52.9008 -15.4099 94° East  Level FlightAware Approximate
Fri 04:29:00 AM 52.8911 -15.1777 94° East  Level FlightAware Approximate
Fri 04:30:00 AM 52.8811 -14.9456 94° East  Level FlightAware Approximate
Fri 04:31:00 AM 52.8713 -14.7135 94° East  Level FlightAware Approximate
Fri 04:32:00 AM 52.8611 -14.4815 94° East  Level FlightAware Approximate
Fri 04:33:00 AM 52.8504 -14.2496 94° East  Level FlightAware Approximate
Fri 04:34:00 AM 52.8393 -14.0179 94° East  Level FlightAware Approximate
Fri 04:35:00 AM 52.8277 -13.7862 95° East  Level FlightAware Approximate
Fri 04:36:00 AM 52.8157 -13.5547 95° East  Level FlightAware Approximate
Fri 04:37:00 AM 52.8032 -13.3233 95° East  Level FlightAware Approximate
Fri 04:38:00 AM 52.7903 -13.0921 95° East  Level FlightAware Approximate
Fri 04:39:00 AM 52.7769 -12.8610 95° East  Level FlightAware Approximate
Fri 04:40:00 AM 52.7631 -12.6300 96° East  Level FlightAware Approximate
Fri 04:41:00 AM 52.7488 -12.3992 96° East  Level FlightAware Approximate
Fri 04:42:00 AM 52.7341 -12.1686 96° East  Level FlightAware Approximate
Fri 04:43:00 AM 52.7189 -11.9381 96° East  Level FlightAware Approximate
Fri 04:44:00 AM 52.7033 -11.7077 96° East  Level FlightAware Approximate
Fri 04:45:00 AM 52.6873 -11.4775 96° East  Level FlightAware Approximate
Fri 04:46:00 AM 52.6708 -11.2476 97° East  Level FlightAware Approximate
Fri 04:47:00 AM 52.6538 -11.0177 97° East  Level FlightAware Approximate
Fri 04:47:18 AM 52.4965 -8.9755 97° East 482 555 31,400  Level FlightAware UK
Fri 04:47:36 AM 52.4903 -8.9059 98° East 486 559 31,400  Level FlightAware UK
Fri 04:47:54 AM 52.4827 -8.8367 100° East 486 559 31,400 167 Level FlightAware UK
Fri 04:48:12 AM 52.4749 -8.7679 100° East 484 557 31,500 167 Climbing FlightAware UK
Fri 04:48:30 AM 52.4672 -8.6995 100° East 482 555 31,500  Level FlightAware UK
Fri 04:48:48 AM 52.4597 -8.6311 100° East 484 557 31,500  Level FlightAware UK
Fri 04:49:06 AM 52.4521 -8.5627 100° East 484 557 31,500  Level FlightAware UK
Fri 04:49:24 AM 52.4441 -8.4943 101° East 480 552 31,500  Level FlightAware UK
Fri 04:49:42 AM 52.4363 -8.4256 101° East 484 557 31,500  Level FlightAware UK
Fri 04:50:00 AM 52.4282 -8.3568 101° East 482 555 31,500  Level FlightAware UK
Fri 04:50:18 AM 52.4202 -8.2871 101° East 484 557 31,500  Level FlightAware UK
Fri 04:50:36 AM 52.4122 -8.2183 101° East 480 552 31,500  Level FlightAware UK
Fri 04:50:54 AM 52.4040 -8.1493 101° East 484 557 31,500  Level FlightAware UK
Fri 04:51:12 AM 52.3961 -8.0802 101° East 486 559 31,500  Level FlightAware UK
Fri 04:51:30 AM 52.3882 -8.0111 101° East 484 557 31,500  Level FlightAware UK
Fri 04:51:48 AM 52.3800 -7.9420 101° East 480 552 31,500  Level FlightAware UK
Fri 04:52:06 AM 52.3716 -7.8731 101° East 484 557 31,500  Level FlightAware UK
Fri 04:52:24 AM 52.3632 -7.8045 101° East 484 557 31,500  Level FlightAware UK
Fri 04:52:42 AM 52.3548 -7.7357 101° East 480 552 31,500  Level FlightAware UK
Fri 04:53:00 AM 52.3466 -7.6669 101° East 484 557 31,500 -167 Level FlightAware UK
Fri 04:53:18 AM 52.3382 -7.5981 101° East 484 557 31,400  Descending FlightAware UK
Fri 04:53:36 AM 52.3299 -7.5294 101° East 482 555 31,500 167 Climbing FlightAware UK
Fri 04:53:54 AM 52.3216 -7.4607 101° East 478 550 31,500  Level FlightAware UK
Fri 04:54:12 AM 52.3131 -7.3923 101° East 480 552 31,500 -167 Level FlightAware UK
Fri 04:54:30 AM 52.3045 -7.3237 102° East 488 562 31,400  Descending FlightAware UK
Fri 04:54:48 AM 52.2959 -7.2550 102° East 480 552 31,500 167 Climbing FlightAware UK
Fri 04:55:06 AM 52.2873 -7.1863 102° East 480 552 31,500  Level FlightAware UK
Fri 04:55:24 AM 52.2786 -7.1166 101° East 484 557 31,500  Level FlightAware UK
Fri 04:55:42 AM 52.2698 -7.0474 102° East 482 555 31,500  Level FlightAware UK
Fri 04:56:00 AM 52.2611 -6.9782 102° East 484 557 31,500  Level FlightAware UK
Fri 04:56:18 AM 52.2523 -6.9090 102° East 484 557 31,500  Level FlightAware UK
Fri 04:56:36 AM 52.2433 -6.8399 102° East 482 555 31,500 -167 Level FlightAware UK
Fri 04:56:54 AM 52.2343 -6.7709 102° East 484 557 31,400  Descending FlightAware UK
Fri 04:57:12 AM 52.2253 -6.7021 102° East 482 555 31,500 167 Climbing FlightAware UK
Fri 04:57:30 AM 52.2164 -6.6335 102° East 482 555 31,500  Level FlightAware UK
Fri 04:57:48 AM 52.2072 -6.5650 102° East 482 555 31,500  Level FlightAware UK
Fri 04:58:06 AM 52.1981 -6.4964 102° East 480 552 31,500  Level FlightAware UK
Fri 04:58:24 AM 52.1891 -6.4279 102° East 484 557 31,500  Level FlightAware UK
Fri 04:58:42 AM 52.1800 -6.3595 102° East 486 559 31,500  Level FlightAware UK
Fri 04:59:00 AM 52.1708 -6.2910 102° East 482 555 31,500  Level FlightAware UK
Fri 04:59:18 AM 52.1615 -6.2225 102° East 482 555 31,500  Level FlightAware UK
Fri 04:59:48 AM 52.1457 -6.1075 103° East 484 557 31,500  Level FlightAware UK
Fri 05:00:06 AM 52.1363 -6.0397 103° East 482 555 31,500  Level FlightAware UK
Fri 05:00:24 AM 52.1269 -5.9711 103° East 484 557 31,500  Level FlightAware UK
Fri 05:00:42 AM 52.1176 -5.9018 102° East 486 559 31,500  Level FlightAware UK
Fri 05:01:00 AM 52.1082 -5.8334 103° East 484 557 31,500  Level FlightAware UK
Fri 05:01:18 AM 52.0985 -5.7651 103° East 484 557 31,500  Level FlightAware UK
Fri 05:01:36 AM 52.0889 -5.6971 103° East 480 552 31,500  Level FlightAware UK
Fri 05:01:54 AM 52.0794 -5.6292 103° East 484 557 31,500  Level FlightAware UK
Fri 05:02:12 AM 52.0699 -5.5614 103° East 482 555 31,500  Level FlightAware UK
Fri 05:02:30 AM 52.0604 -5.4936 103° East 480 552 31,500  Level FlightAware UK
Fri 05:02:48 AM 52.0509 -5.4257 103° East 484 557 31,500  Level FlightAware UK
Fri 05:03:06 AM 52.0413 -5.3579 103° East 484 557 31,500  Level FlightAware UK
Fri 05:03:24 AM 52.0317 -5.2900 103° East 480 552 31,500  Level FlightAware UK
Fri 05:03:48 AM 52.0191 -5.1995 103° East 480 552 31,500 -143 Level FlightAware UK
Fri 05:04:06 AM 52.0098 -5.1316 103° East 480 552 31,400  Descending FlightAware UK
Fri 05:04:24 AM 52.0001 -5.0629 103° East 486 559 31,500 167 Climbing FlightAware UK
Fri 05:04:42 AM 51.9900 -4.9952 104° East 480 552 31,500  Level FlightAware UK
Fri 05:05:00 AM 51.9797 -4.9277 104° East 480 552 31,500  Level FlightAware UK
Fri 05:05:18 AM 51.9695 -4.8602 104° East 482 555 31,500  Level FlightAware UK
Fri 05:05:36 AM 51.9595 -4.7924 103° East 482 555 31,500  Level FlightAware UK
Fri 05:05:54 AM 51.9459 -4.7260 108° East 480 552 31,500  Level FlightAware UK
Fri 05:06:12 AM 51.9327 -4.6599 108° East 478 550 31,500  Level FlightAware UK
Fri 05:06:30 AM 51.9195 -4.5935 108° East 480 552 31,500  Level FlightAware UK
Fri 05:06:48 AM 51.9065 -4.5268 108° East 482 555 31,500  Level FlightAware UK
Fri 05:07:12 AM 51.8888 -4.4377 108° East 482 555 31,500  Level FlightAware UK
Fri 05:07:54 AM 51.8579 -4.2815 108° East 484 557 31,500  Level FlightAware UK
Fri 05:08:19 AM 51.8426 -4.1896 105° East 484 557 31,500  Level FlightAware UK
Fri 05:08:43 AM 51.8289 -4.0983 104° East 484 557 31,500  Level FlightAware UK
Fri 05:09:19 AM 51.8084 -3.9609 104° East 484 557 31,500  Level FlightAware UK
Fri 05:09:43 AM 51.7947 -3.8696 104° East 484 557 31,500  Level FlightAware UK
Fri 05:10:01 AM 51.7842 -3.8015 104° East 482 555 31,500  Level FlightAware UK
Fri 05:10:19 AM 51.7735 -3.7326 104° East 486 559 31,500  Level FlightAware UK
Fri 05:10:37 AM 51.7629 -3.6646 104° East 486 559 31,500  Level FlightAware UK
Fri 05:10:55 AM 51.7524 -3.5967 104° East 482 555 31,500  Level FlightAware UK
Fri 05:11:13 AM 51.7418 -3.5291 104° East 482 555 31,500  Level FlightAware UK
Fri 05:11:49 AM 51.7210 -3.3935 104° East 480 552 31,500  Level FlightAware UK
Fri 05:12:07 AM 51.7106 -3.3247 104° East 482 555 31,500  Level FlightAware UK
Fri 05:12:25 AM 51.7000 -3.2569 104° East 478 550 31,500  Level FlightAware UK
Fri 05:12:43 AM 51.6893 -3.1891 104° East 480 552 31,500  Level FlightAware UK
Fri 05:13:01 AM 51.6783 -3.1204 104° East 480 552 31,500  Level FlightAware UK
Fri 05:13:19 AM 51.6675 -3.0523 104° East 478 550 31,500  Level FlightAware UK
Fri 05:14:13 AM 51.6476 -2.8420 99° East 482 555 31,500  Level FlightAware UK
Fri 05:14:43 AM 51.6389 -2.7246 97° East 484 557 31,500  Level FlightAware UK
Fri 05:15:13 AM 51.6292 -2.6067 97° East 480 552 31,500  Level FlightAware UK
Fri 05:15:43 AM 51.6189 -2.4900 98° East 480 552 31,500  Level FlightAware UK
Fri 05:16:01 AM 51.6138 -2.4197 97° East 482 555 31,500  Level FlightAware UK
Fri 05:16:38 AM 51.6035 -2.2779 97° East 482 555 31,500  Level FlightAware UK
Fri 05:17:08 AM 51.5941 -2.1600 97° East 480 552 31,500  Level FlightAware UK
Fri 05:17:26 AM 51.5883 -2.0897 98° East 482 555 31,500 -167 Level FlightAware UK
Fri 05:17:44 AM 51.5823 -2.0192 98° East 484 557 31,400  Descending FlightAware UK
Fri 05:18:02 AM 51.5763 -1.9489 98° East 484 557 31,500 143 Climbing FlightAware UK
Fri 05:18:26 AM 51.5681 -1.8545 98° East 482 555 31,500  Level FlightAware UK
Fri 05:18:44 AM 51.5620 -1.7852 98° East 484 557 31,500  Level FlightAware UK
Fri 05:19:08 AM 51.5537 -1.6912 98° East 484 557 31,500  Level FlightAware UK
Fri 05:19:32 AM 51.5456 -1.5980 98° East 482 555 31,500  Level FlightAware UK
Fri 05:19:50 AM 51.5395 -1.5275 98° East 482 555 31,500  Level FlightAware UK
Fri 05:20:08 AM 51.5332 -1.4570 98° East 480 552 31,500  Level FlightAware UK
Fri 05:20:38 AM 51.5227 -1.3406 98° East 482 555 31,500  Level FlightAware UK
Fri 05:20:56 AM 51.5164 -1.2707 98° East 484 557 31,500  Level FlightAware UK
Fri 05:21:14 AM 51.5101 -1.2007 98° East 484 557 31,500  Level FlightAware UK
Fri 05:21:39 AM 51.5014 -1.1069 98° East 484 557 31,500  Level FlightAware UK
Fri 05:22:03 AM 51.4930 -1.0141 98° East 484 557 31,500  Level FlightAware UK
Fri 05:22:45 AM 51.4782 -0.8528 98° East 486 559 31,500  Level FlightAware UK
Fri 05:23:15 AM 51.4673 -0.7384 99° East 480 552 31,500  Level FlightAware UK
Fri 05:23:51 AM 51.4542 -0.5996 99° East 480 552 31,500  Level FlightAware UK
Fri 05:24:15 AM 51.4451 -0.5075 99° East 480 552 31,500 -111 Level FlightAware UK
Fri 05:24:45 AM 51.4341 -0.3921 99° East 482 555 31,400  Descending FlightAware UK
Fri 05:25:03 AM 51.4272 -0.3224 99° East 482 555 31,500 167 Climbing FlightAware UK
Fri 05:25:21 AM 51.4204 -0.2534 99° East 482 555 31,500  Level FlightAware UK
Fri 05:25:51 AM 51.4090 -0.1382 99° East 484 557 31,500  Level FlightAware UK
Fri 05:26:15 AM 51.4052 -0.0441 94° East 484 557 31,500  Level FlightAware UK
Fri 05:26:33 AM 51.4031 0.0257 93° East 482 555 31,500  Level FlightAware UK
Fri 05:26:51 AM 51.4012 0.0954 92° East 482 555 31,500  Level FlightAware UK
Fri 05:27:09 AM 51.3993 0.1650 93° East 482 555 31,500  Level FlightAware UK
Fri 05:27:34 AM 51.3962 0.2584 93° East 484 557 31,500  Level FlightAware UK
Fri 05:27:58 AM 51.3929 0.3510 93° East 480 552 31,500 -71 Level FlightAware UK
Fri 05:28:58 AM 51.3727 0.5813 98° East 482 555 31,400  Descending FlightAware UK
Fri 05:29:22 AM 51.3618 0.6726 101° East 478 550 31,500 111 Climbing FlightAware UK
Fri 05:29:52 AM 51.3479 0.7869 101° East 480 552 31,500 -111 Level FlightAware UK
Fri 05:30:16 AM 51.3363 0.8785 101° East 480 552 31,400 -125 Descending FlightAware UK
Fri 05:30:40 AM 51.3246 0.9709 101° East 484 557 31,400 143 Level FlightAware UK
Fri 05:30:58 AM 51.3157 1.0395 102° East 482 555 31,500 83 Climbing FlightAware UK
Fri 05:31:52 AM 51.2884 1.2454 102° East 484 557 31,500  Level FlightAware UK
Fri 05:32:28 AM 51.2678 1.3810 104° East 484 557 31,500  Level FlightAware UK
Fri 05:33:04 AM 51.2477 1.5153 103° East 484 557 31,500  Level FlightAware UK
Fri 05:33:22 AM 51.2378 1.5823 103° East 486 559 31,500  Level FlightAware UK
Fri 05:33:40 AM 51.2278 1.6484 104° East 484 557 31,500  Level FlightAware UK
Fri 05:33:58 AM 51.2179 1.7150 103° East 484 557 31,500  Level FlightAware UK
Fri 05:34:16 AM 51.2081 1.7815 103° East 484 557 31,500  Level FlightAware UK
Fri 05:34:34 AM 51.1982 1.8485 103° East 482 555 31,500  Level FlightAware UK
Fri 05:34:52 AM 51.1880 1.9147 104° East 482 555 31,500  Level FlightAware UK
Fri 05:35:22 AM 51.1711 2.0249 104° East 482 555 31,500  Level FlightAware UK
Fri 05:35:41 AM 51.1608 2.0916 104° East 480 552 31,500  Level FlightAware UK
Fri 05:35:59 AM 51.1508 2.1577 104° East 482 555 31,500  Level FlightAware UK
Fri 05:37:17 AM 51.1068 2.4434 104° East 480 552 31,500  Level FlightAware UK
Fri 05:37:35 AM 51.0965 2.5092 104° East 482 555 31,500  Level FlightAware UK
Fri 05:37:59 AM 51.0827 2.5967 104° East 482 555 31,500  Level FlightAware UK
Fri 05:38:17 AM 51.0723 2.6622 104° East 484 557 31,500 1,125 Level FlightAware UK
Fri 05:39:19 AM 51.0366 2.8854 104° East 512 589 33,000  Climbing FlightAware ADS-B
Fri 05:39:41 AM 51.0236 2.9670 104° East 480 552 31,500 -1,098 Descending FlightAware UK
Fri 05:40:41 AM 50.9881 3.1841 104° East 482 555 31,500  Level FlightAware UK
Fri 05:40:59 AM 50.9774 3.2498 105° East 482 555 31,500 1,324 Level FlightAware UK
Fri 05:41:49 AM 50.9480 3.4273 105° East 509 586 33,000  Climbing FlightAware ADS-B
Fri 05:43:05 AM 50.9022 3.7011 105° East 480 552 31,500 -849 Descending FlightAware UK
Fri 05:43:35 AM 50.8838 3.8080 105° East 480 552 31,500  Level FlightAware UK
Fri 05:44:29 AM 50.8511 4.0014 105° East 484 557 31,500  Level FlightAware UK
Fri 05:45:35 AM 50.8106 4.2370 105° East 480 552 31,500  Level FlightAware UK
Fri 05:45:53 AM 50.7993 4.3014 106° East 480 552 31,500  Level FlightAware UK
Fri 05:46:17 AM 50.7838 4.3861 106° East 482 555 31,500  Level FlightAware UK
Fri 05:46:41 AM 50.7690 4.4708 105° East 480 552 31,500 2,250 Level FlightAware UK
Fri 05:46:57 AM 50.7594 4.5272 105° East 504 580 33,000 1,731 Climbing FlightAware ADS-B
Fri 05:47:33 AM 50.7372 4.6526 106° East 504 580 33,000  Level FlightAware ADS-B
Fri 05:50:00 AM 50.6229 5.1647 109° East  Level FlightAware Approximate
Fri 05:50:26 AM 50.6272 5.2597 109° East 499 574 33,000  Level FlightAware ADS-B
Fri 05:52:00 AM 50.5508 5.5847 110° East  Level FlightAware Approximate
Fri 05:53:00 AM 50.5016 5.7915 110° East  Level FlightAware Approximate
Fri 05:54:00 AM 50.4520 5.9979 111° Southeast  Level FlightAware Approximate
Fri 05:55:00 AM 50.4020 6.2039 111° Southeast  Level FlightAware Approximate
Fri 05:56:00 AM 50.3517 6.4095 111° Southeast  Level FlightAware Approximate
Fri 05:57:00 AM 50.3010 6.6146 111° Southeast  Level FlightAware Approximate
Fri 05:58:00 AM 50.2500 6.8193 111° Southeast  Level FlightAware Approximate
Fri 05:59:00 AM 50.1986 7.0235 111° Southeast  Level FlightAware Approximate
Fri 06:00:00 AM 50.1468 7.2273 112° Southeast  Level FlightAware Approximate
Fri 06:01:00 AM 50.0947 7.4307 112° Southeast  Level FlightAware Approximate
Fri 06:02:00 AM 50.0423 7.6336 112° Southeast  Level FlightAware Approximate
Fri 06:03:00 AM 49.9894 7.8361 112° Southeast  Level FlightAware Approximate
Fri 06:04:00 AM 49.9363 8.0381 112° Southeast  Level FlightAware Approximate
Fri 06:05:00 AM 49.8828 8.2397 112° Southeast  Level FlightAware Approximate
Fri 06:06:00 AM 49.8289 8.4408 112° Southeast  Level FlightAware Approximate
Fri 06:07:00 AM 49.7747 8.6415 113° Southeast  Level FlightAware Approximate
Fri 06:08:00 AM 49.7201 8.8417 113° Southeast  Level FlightAware Approximate
Fri 06:09:00 AM 49.6652 9.0415 113° Southeast  Level FlightAware Approximate
Fri 06:10:00 AM 49.6094 9.2450 112° Southeast  Level FlightAware Approximate
Fri 06:11:00 AM 49.5574 9.4462 112° Southeast  Level FlightAware Approximate
Fri 06:12:00 AM 49.5050 9.6469 112° Southeast  Level FlightAware Approximate
Fri 06:13:00 AM 49.4523 9.8472 112° Southeast  Level FlightAware Approximate
Fri 06:14:00 AM 49.3993 10.0471 112° Southeast  Level FlightAware Approximate
Fri 06:15:00 AM 49.3459 10.2466 112° Southeast  Level FlightAware Approximate
Fri 06:16:00 AM 49.2925 10.4458 112° Southeast  Level FlightAware Approximate
Fri 06:17:00 AM 49.2408 10.6459 112° Southeast  Level FlightAware Approximate
Fri 06:18:00 AM 49.1887 10.8455 112° Southeast  Level FlightAware Approximate
Fri 06:19:00 AM 49.1363 11.0447 112° Southeast  Level FlightAware Approximate
Fri 06:20:00 AM 49.0836 11.2435 112° Southeast  Level FlightAware Approximate
Fri 06:21:00 AM 49.0305 11.4419 112° Southeast  Level FlightAware Approximate
Fri 06:22:00 AM 48.9768 11.6397 113° Southeast  Level FlightAware Approximate
Fri 06:23:00 AM 48.9211 11.8360 113° Southeast  Level FlightAware Approximate
Fri 06:24:00 AM 48.8651 12.0318 113° Southeast  Level FlightAware Approximate
Fri 06:25:00 AM 48.8088 12.2272 114° Southeast  Level FlightAware Approximate
Fri 06:26:00 AM 48.7521 12.4222 114° Southeast  Level FlightAware Approximate
Fri 06:27:00 AM 48.6952 12.6168 113° Southeast  Level FlightAware Approximate
Fri 06:28:00 AM 48.6391 12.8117 113° Southeast  Level FlightAware Approximate
Fri 06:29:00 AM 48.5826 13.0062 114° Southeast  Level FlightAware Approximate
Fri 06:30:00 AM 48.5259 13.2002 114° Southeast  Level FlightAware Approximate
Fri 06:31:00 AM 48.4688 13.3938 114° Southeast  Level FlightAware Approximate
Fri 06:32:00 AM 48.4114 13.5869 114° Southeast  Level FlightAware Approximate
Fri 06:33:00 AM 48.3537 13.7797 114° Southeast  Level FlightAware Approximate
Fri 06:34:00 AM 48.2956 13.9720 114° Southeast  Level FlightAware Approximate
Fri 06:35:00 AM 48.2372 14.1638 114° Southeast  Level FlightAware Approximate
Fri 06:36:00 AM 48.1786 14.3552 115° Southeast  Level FlightAware Approximate
Fri 06:37:00 AM 48.1195 14.5462 115° Southeast  Level FlightAware Approximate
Fri 06:38:00 AM 48.0602 14.7367 115° Southeast  Level FlightAware Approximate
Fri 06:39:00 AM 48.0006 14.9268 115° Southeast  Level FlightAware Approximate
Fri 06:40:00 AM 47.9406 15.1165 115° Southeast  Level FlightAware Approximate
Fri 06:41:00 AM 47.8804 15.3057 115° Southeast  Level FlightAware Approximate
Fri 06:42:00 AM 47.8198 15.4944 115° Southeast  Level FlightAware Approximate
Fri 06:43:00 AM 47.7589 15.6828 116° Southeast  Level FlightAware Approximate
Fri 06:44:00 AM 47.6977 15.8707 116° Southeast  Level FlightAware Approximate
Fri 06:45:00 AM 47.6362 16.0581 116° Southeast  Level FlightAware Approximate
Fri 06:46:00 AM 47.5744 16.2451 116° Southeast  Level FlightAware Approximate
Fri 06:47:00 AM 47.5123 16.4317 116° Southeast  Level FlightAware Approximate
Fri 06:48:00 AM 47.4499 16.6178 116° Southeast  Level FlightAware Approximate
Fri 06:49:00 AM 47.3872 16.8035 116° Southeast  Level FlightAware Approximate
Fri 06:50:00 AM 47.3242 16.9887 117° Southeast  Level FlightAware Approximate
Fri 06:51:00 AM 47.2609 17.1735 117° Southeast  Level FlightAware Approximate
Fri 06:52:00 AM 47.1973 17.3579 116° Southeast  Level FlightAware Approximate
Fri 06:53:00 AM 47.1345 17.5427 116° Southeast  Level FlightAware Approximate
Fri 06:54:00 AM 47.0715 17.7270 117° Southeast  Level FlightAware Approximate
Fri 06:55:00 AM 47.0081 17.9109 117° Southeast  Level FlightAware Approximate
Fri 06:56:00 AM 46.9445 18.0943 117° Southeast  Level FlightAware Approximate
Fri 06:57:00 AM 46.8805 18.2773 117° Southeast  Level FlightAware Approximate
Fri 06:58:00 AM 46.8163 18.4599 117° Southeast  Level FlightAware Approximate
Fri 06:59:00 AM 46.7514 18.6418 118° Southeast  Level FlightAware Approximate
Fri 07:00:00 AM 46.6854 18.8225 118° Southeast  Level FlightAware Approximate
Fri 07:01:00 AM 46.6190 19.0028 118° Southeast  Level FlightAware Approximate
Fri 07:02:00 AM 46.5523 19.1826 118° Southeast  Level FlightAware Approximate
Fri 07:03:00 AM 46.4854 19.3619 118° Southeast  Level FlightAware Approximate
Fri 07:04:00 AM 46.4182 19.5409 119° Southeast  Level FlightAware Approximate
Fri 07:05:00 AM 46.3507 19.7194 119° Southeast  Level FlightAware Approximate
Fri 07:06:00 AM 46.2829 19.8974 119° Southeast  Level FlightAware Approximate
Fri 07:07:00 AM 46.2148 20.0751 119° Southeast  Level FlightAware Approximate
Fri 07:08:00 AM 46.1465 20.2522 119° Southeast  Level FlightAware Approximate
Fri 07:09:00 AM 46.0779 20.4290 119° Southeast  Level FlightAware Approximate
Fri 07:10:00 AM 46.0090 20.6053 119° Southeast  Level FlightAware Approximate
Fri 07:11:00 AM 45.9399 20.7811 119° Southeast  Level FlightAware Approximate
Fri 07:12:00 AM 45.8705 20.9566 120° Southeast  Level FlightAware Approximate
Fri 07:13:00 AM 45.8007 21.1314 120° Southeast  Level FlightAware Approximate
Fri 07:14:00 AM 45.7304 21.3056 120° Southeast  Level FlightAware Approximate
Fri 07:15:00 AM 45.6598 21.4795 120° Southeast  Level FlightAware Approximate
Fri 07:16:00 AM 45.5890 21.6529 120° Southeast  Level FlightAware Approximate
Fri 07:17:00 AM 45.5180 21.8258 120° Southeast  Level FlightAware Approximate
Fri 07:18:00 AM 45.4468 21.9985 120° Southeast  Level FlightAware Approximate
Fri 07:19:00 AM 45.3759 22.1711 120° Southeast  Level FlightAware Approximate
Fri 07:20:00 AM 45.3048 22.3434 120° Southeast  Level FlightAware Approximate
Fri 07:21:00 AM 45.2334 22.5152 121° Southeast  Level FlightAware Approximate
Fri 07:22:00 AM 45.1617 22.6865 121° Southeast  Level FlightAware Approximate
Fri 07:23:00 AM 45.0899 22.8575 121° Southeast  Level FlightAware Approximate
Fri 07:24:00 AM 45.0179 23.0282 121° Southeast  Level FlightAware Approximate
Fri 07:25:00 AM 44.9458 23.1985 121° Southeast  Level FlightAware Approximate
Fri 07:26:00 AM 44.8734 23.3684 121° Southeast  Level FlightAware Approximate
Fri 07:27:00 AM 44.8007 23.5378 121° Southeast  Level FlightAware Approximate
Fri 07:28:00 AM 44.7278 23.7068 121° Southeast  Level FlightAware Approximate
Fri 07:29:00 AM 44.6546 23.8754 121° Southeast  Level FlightAware Approximate
Fri 07:30:00 AM 44.5812 24.0436 121° Southeast  Level FlightAware Approximate
Fri 07:31:00 AM 44.5075 24.2113 122° Southeast  Level FlightAware Approximate
Fri 07:32:00 AM 44.4336 24.3786 122° Southeast  Level FlightAware Approximate
Fri 07:33:00 AM 44.3595 24.5455 122° Southeast  Level FlightAware Approximate
Fri 07:34:00 AM 44.2843 24.7113 122° Southeast  Level FlightAware Approximate
Fri 07:35:00 AM 44.2088 24.8766 122° Southeast  Level FlightAware Approximate
Fri 07:36:00 AM 44.1331 25.0414 123° Southeast  Level FlightAware Approximate
Fri 07:37:00 AM 44.0572 25.2059 123° Southeast  Level FlightAware Approximate
Fri 07:38:00 AM 43.9810 25.3699 123° Southeast  Level FlightAware Approximate
Fri 07:39:00 AM 43.9045 25.5335 123° Southeast  Level FlightAware Approximate
Fri 07:40:00 AM 43.8279 25.6967 123° Southeast  Level FlightAware Approximate
Fri 07:41:00 AM 43.7510 25.8594 123° Southeast  Level FlightAware Approximate
Fri 07:42:00 AM 43.6739 26.0218 123° Southeast  Level FlightAware Approximate
Fri 07:43:00 AM 43.5965 26.1837 123° Southeast  Level FlightAware Approximate
Fri 07:44:00 AM 43.5189 26.3452 123° Southeast  Level FlightAware Approximate
Fri 07:45:00 AM 43.4411 26.5063 124° Southeast  Level FlightAware Approximate
Fri 07:46:00 AM 43.3631 26.6670 124° Southeast  Level FlightAware Approximate
Fri 07:47:00 AM 43.2849 26.8273 124° Southeast  Level FlightAware Approximate
Fri 07:48:00 AM 43.2064 26.9871 124° Southeast  Level FlightAware Approximate
Fri 07:49:00 AM 43.1277 27.1465 124° Southeast  Level FlightAware Approximate
Fri 07:50:00 AM 43.0488 27.3056 124° Southeast  Level FlightAware Approximate
Fri 07:51:00 AM 42.9696 27.4642 124° Southeast  Level FlightAware Approximate
Fri 07:52:00 AM 42.8903 27.6224 124° Southeast  Level FlightAware Approximate
Fri 07:53:00 AM 42.8107 27.7802 124° Southeast  Level FlightAware Approximate
Fri 07:54:00 AM 42.7312 27.9379 124° Southeast  Level FlightAware Approximate
Fri 07:55:00 AM 42.6522 28.0959 124° Southeast  Level FlightAware Approximate
Fri 07:56:00 AM 42.5731 28.2535 124° Southeast  Level FlightAware Approximate
Fri 07:57:00 AM 42.4937 28.4107 124° Southeast  Level FlightAware Approximate
Fri 07:58:00 AM 42.4142 28.5675 124° Southeast  Level FlightAware Approximate
Fri 07:59:00 AM 42.3344 28.7239 125° Southeast  Level FlightAware Approximate
Fri 08:00:00 AM 42.2544 28.8799 125° Southeast  Level FlightAware Approximate
Fri 08:01:00 AM 42.1742 29.0355 125° Southeast  Level FlightAware Approximate
Fri 08:02:00 AM 42.0938 29.1908 125° Southeast  Level FlightAware Approximate
Fri 08:03:00 AM 42.0131 29.3456 125° Southeast  Level FlightAware Approximate
Fri 08:04:00 AM 41.9323 29.5000 125° Southeast  Level FlightAware Approximate
Fri 08:05:00 AM 41.8513 29.6541 125° Southeast  Level FlightAware Approximate
Fri 08:06:00 AM 41.7700 29.8077 125° Southeast  Level FlightAware Approximate
Fri 08:07:00 AM 41.6886 29.9610 125° Southeast  Level FlightAware Approximate
Fri 08:08:00 AM 41.6064 30.1134 126° Southeast  Level FlightAware Approximate
Fri 08:09:00 AM 41.5236 30.2649 126° Southeast  Level FlightAware Approximate
Fri 08:10:00 AM 41.4406 30.4161 126° Southeast  Level FlightAware Approximate
Fri 08:11:00 AM 41.3574 30.5669 126° Southeast  Level FlightAware Approximate
Fri 08:12:00 AM 41.2740 30.7173 126° Southeast  Level FlightAware Approximate
Fri 08:13:00 AM 41.1903 30.8673 126° Southeast  Level FlightAware Approximate
Fri 08:14:00 AM 41.1065 31.0169 127° Southeast  Level FlightAware Approximate
Fri 08:15:00 AM 41.0226 31.1662 127° Southeast  Level FlightAware Approximate
Fri 08:16:00 AM 40.9384 31.3150 127° Southeast  Level FlightAware Approximate
Fri 08:17:00 AM 40.8540 31.4635 127° Southeast  Level FlightAware Approximate
Fri 08:18:00 AM 40.7694 31.6116 127° Southeast  Level FlightAware Approximate
Fri 08:19:00 AM 40.6847 31.7593 127° Southeast  Level FlightAware Approximate
Fri 08:20:00 AM 40.5997 31.9067 127° Southeast  Level FlightAware Approximate
Fri 08:21:00 AM 40.5146 32.0537 127° Southeast  Level FlightAware Approximate
Fri 08:22:00 AM 40.4293 32.2003 127° Southeast  Level FlightAware Approximate
Fri 08:23:00 AM 40.3438 32.3465 127° Southeast  Level FlightAware Approximate
Fri 08:24:00 AM 40.2581 32.4924 128° Southeast  Level FlightAware Approximate
Fri 08:25:00 AM 40.1722 32.6379 128° Southeast  Level FlightAware Approximate
Fri 08:26:00 AM 40.0862 32.7830 128° Southeast  Level FlightAware Approximate
Fri 08:27:00 AM 39.9999 32.9278 128° Southeast  Level FlightAware Approximate
Fri 08:28:00 AM 39.9135 33.0722 128° Southeast  Level FlightAware Approximate
Fri 08:29:00 AM 39.8269 33.2162 128° Southeast  Level FlightAware Approximate
Fri 08:30:00 AM 39.7402 33.3599 128° Southeast  Level FlightAware Approximate
Fri 08:31:00 AM 39.6532 33.5032 128° Southeast  Level FlightAware Approximate
Fri 08:32:00 AM 39.5661 33.6461 128° Southeast  Level FlightAware Approximate
Fri 08:33:00 AM 39.4788 33.7887 128° Southeast  Level FlightAware Approximate
Fri 08:34:00 AM 39.3914 33.9309 128° Southeast  Level FlightAware Approximate
Fri 08:35:00 AM 39.3037 34.0728 129° Southeast  Level FlightAware Approximate
Fri 08:36:00 AM 39.2159 34.2143 129° Southeast  Level FlightAware Approximate
Fri 08:37:00 AM 39.1279 34.3555 129° Southeast  Level FlightAware Approximate
Fri 08:38:00 AM 39.0398 34.4963 129° Southeast  Level FlightAware Approximate
Fri 08:39:00 AM 38.9515 34.6368 129° Southeast  Level FlightAware Approximate
Fri 08:40:00 AM 38.8630 34.7769 129° Southeast  Level FlightAware Approximate
Fri 08:41:00 AM 38.7743 34.9166 129° Southeast  Level FlightAware Approximate
Fri 08:42:00 AM 38.6856 35.0561 129° Southeast  Level FlightAware Approximate
Fri 08:43:00 AM 38.5971 35.1956 129° Southeast  Level FlightAware Approximate
Fri 08:44:00 AM 38.5084 35.3348 129° Southeast  Level FlightAware Approximate
Fri 08:45:00 AM 38.4195 35.4737 129° Southeast  Level FlightAware Approximate
Fri 08:46:00 AM 38.3305 35.6122 129° Southeast  Level FlightAware Approximate
Fri 08:47:00 AM 38.2413 35.7504 129° Southeast  Level FlightAware Approximate
Fri 08:48:00 AM 38.1519 35.8882 129° Southeast  Level FlightAware Approximate
Fri 08:49:00 AM 38.0624 36.0257 130° Southeast  Level FlightAware Approximate
Fri 08:50:00 AM 37.9728 36.1629 130° Southeast  Level FlightAware Approximate
Fri 08:51:00 AM 37.8829 36.2997 130° Southeast  Level FlightAware Approximate
Fri 08:52:00 AM 37.7929 36.4362 130° Southeast  Level FlightAware Approximate
Fri 08:53:00 AM 37.7028 36.5724 130° Southeast  Level FlightAware Approximate
Fri 08:54:00 AM 37.6125 36.7082 130° Southeast  Level FlightAware Approximate
Fri 08:55:00 AM 37.5221 36.8437 130° Southeast  Level FlightAware Approximate
Fri 08:56:00 AM 37.4314 36.9789 130° Southeast  Level FlightAware Approximate
Fri 08:57:00 AM 37.3407 37.1137 130° Southeast  Level FlightAware Approximate
Fri 08:58:00 AM 37.2498 37.2482 130° Southeast  Level FlightAware Approximate
Fri 08:59:00 AM 37.1587 37.3824 130° Southeast  Level FlightAware Approximate
Fri 09:00:00 AM 37.0675 37.5163 130° Southeast  Level FlightAware Approximate
Fri 09:01:00 AM 36.9761 37.6498 131° Southeast  Level FlightAware Approximate
Fri 09:02:00 AM 36.8846 37.7831 131° Southeast  Level FlightAware Approximate
Fri 09:03:00 AM 36.7927 37.9157 131° Southeast  Level FlightAware Approximate
Fri 09:04:00 AM 36.7005 38.0478 131° Southeast  Level FlightAware Approximate
Fri 09:05:00 AM 36.6081 38.1796 131° Southeast  Level FlightAware Approximate
Fri 09:06:00 AM 36.5155 38.3111 131° Southeast  Level FlightAware Approximate
Fri 09:07:00 AM 36.4229 38.4423 131° Southeast  Level FlightAware Approximate
Fri 09:08:00 AM 36.3300 38.5732 131° Southeast  Level FlightAware Approximate
Fri 09:09:00 AM 36.2371 38.7037 131° Southeast  Level FlightAware Approximate
Fri 09:10:00 AM 36.1440 38.8340 131° Southeast  Level FlightAware Approximate
Fri 09:11:00 AM 36.0507 38.9639 132° Southeast  Level FlightAware Approximate
Fri 09:12:00 AM 35.9574 39.0935 132° Southeast  Level FlightAware Approximate
Fri 09:13:00 AM 35.8638 39.2229 132° Southeast  Level FlightAware Approximate
Fri 09:14:00 AM 35.7702 39.3519 132° Southeast  Level FlightAware Approximate
Fri 09:15:00 AM 35.6764 39.4806 132° Southeast  Level FlightAware Approximate
Fri 09:16:00 AM 35.5826 39.6092 132° Southeast  Level FlightAware Approximate
Fri 09:17:00 AM 35.4887 39.7375 132° Southeast  Level FlightAware Approximate
Fri 09:18:00 AM 35.3948 39.8656 132° Southeast  Level FlightAware Approximate
Fri 09:19:00 AM 35.3006 39.9933 132° Southeast  Level FlightAware Approximate
Fri 09:20:00 AM 35.2064 40.1208 132° Southeast  Level FlightAware Approximate
Fri 09:21:00 AM 35.1120 40.2480 132° Southeast  Level FlightAware Approximate
Fri 09:22:00 AM 35.0175 40.3748 132° Southeast  Level FlightAware Approximate
Fri 09:23:00 AM 34.9228 40.5014 132° Southeast  Level FlightAware Approximate
Fri 09:24:00 AM 34.8280 40.6277 132° Southeast  Level FlightAware Approximate
Fri 09:25:00 AM 34.7331 40.7537 132° Southeast  Level FlightAware Approximate
Fri 09:26:00 AM 34.6381 40.8794 133° Southeast  Level FlightAware Approximate
Fri 09:27:00 AM 34.5429 41.0048 133° Southeast  Level FlightAware Approximate
Fri 09:28:00 AM 34.4476 41.1299 133° Southeast  Level FlightAware Approximate
Fri 09:29:00 AM 34.3522 41.2548 133° Southeast  Level FlightAware Approximate
Fri 09:30:00 AM 34.2567 41.3793 133° Southeast  Level FlightAware Approximate
Fri 09:31:00 AM 34.1610 41.5036 133° Southeast  Level FlightAware Approximate
Fri 09:32:00 AM 34.0652 41.6276 133° Southeast  Level FlightAware Approximate
Fri 09:33:00 AM 33.9692 41.7514 133° Southeast  Level FlightAware Approximate
Fri 09:34:00 AM 33.8732 41.8748 133° Southeast  Level FlightAware Approximate
Fri 09:35:00 AM 33.7770 41.9980 133° Southeast  Level FlightAware Approximate
Fri 09:36:00 AM 33.6807 42.1208 133° Southeast  Level FlightAware Approximate
Fri 09:37:00 AM 33.5843 42.2434 133° Southeast  Level FlightAware Approximate
Fri 09:38:00 AM 33.4878 42.3658 133° Southeast  Level FlightAware Approximate
Fri 09:39:00 AM 33.3911 42.4878 133° Southeast  Level FlightAware Approximate
Fri 09:40:00 AM 33.2944 42.6096 134° Southeast  Level FlightAware Approximate
Fri 09:41:00 AM 33.1975 42.7311 134° Southeast  Level FlightAware Approximate
Fri 09:42:00 AM 33.1005 42.8524 134° Southeast  Level FlightAware Approximate
Fri 09:43:00 AM 33.0033 42.9734 134° Southeast  Level FlightAware Approximate
Fri 09:44:00 AM 32.9061 43.0941 134° Southeast  Level FlightAware Approximate
Fri 09:45:00 AM 32.8087 43.2145 134° Southeast  Level FlightAware Approximate
Fri 09:46:00 AM 32.7113 43.3347 134° Southeast  Level FlightAware Approximate
Fri 09:47:00 AM 32.6137 43.4547 134° Southeast  Level FlightAware Approximate
Fri 09:48:00 AM 32.5160 43.5743 134° Southeast  Level FlightAware Approximate
Fri 09:49:00 AM 32.4181 43.6937 134° Southeast  Level FlightAware Approximate
Fri 09:50:00 AM 32.3202 43.8129 134° Southeast  Level FlightAware Approximate
Fri 09:51:00 AM 32.2222 43.9318 134° Southeast  Level FlightAware Approximate
Fri 09:52:00 AM 32.1240 44.0504 134° Southeast  Level FlightAware Approximate
Fri 09:53:00 AM 32.0258 44.1688 134° Southeast  Level FlightAware Approximate
Fri 09:54:00 AM 31.9274 44.2869 134° Southeast  Level FlightAware Approximate
Fri 09:55:00 AM 31.8289 44.4048 135° Southeast  Level FlightAware Approximate
Fri 09:56:00 AM 31.7303 44.5224 135° Southeast  Level FlightAware Approximate
Fri 09:57:00 AM 31.6316 44.6398 135° Southeast  Level FlightAware Approximate
Fri 09:58:00 AM 31.5328 44.7569 135° Southeast  Level FlightAware Approximate
Fri 09:59:00 AM 31.4339 44.8738 135° Southeast  Level FlightAware Approximate
Fri 10:00:00 AM 31.3349 44.9904 135° Southeast  Level FlightAware Approximate
Fri 10:01:00 AM 31.2358 45.1068 135° Southeast  Level FlightAware Approximate
Fri 10:02:00 AM 31.1365 45.2229 135° Southeast  Level FlightAware Approximate
Fri 10:03:00 AM 31.0372 45.3388 135° Southeast  Level FlightAware Approximate
Fri 10:04:00 AM 30.9378 45.4544 135° Southeast  Level FlightAware Approximate
Fri 10:05:00 AM 30.8382 45.5699 135° Southeast  Level FlightAware Approximate
Fri 10:06:00 AM 30.7386 45.6850 135° Southeast  Level FlightAware Approximate
Fri 10:07:00 AM 30.6389 45.8000 135° Southeast  Level FlightAware Approximate
Fri 10:08:00 AM 30.5390 45.9147 135° Southeast  Level FlightAware Approximate
Fri 10:09:00 AM 30.4391 46.0291 135° Southeast  Level FlightAware Approximate
Fri 10:10:00 AM 30.3390 46.1433 135° Southeast  Level FlightAware Approximate
Fri 10:11:00 AM 30.2389 46.2573 135° Southeast  Level FlightAware Approximate
Fri 10:12:00 AM 30.1387 46.3711 136° Southeast  Level FlightAware Approximate
Fri 10:13:00 AM 30.0383 46.4846 136° Southeast  Level FlightAware Approximate
Fri 10:14:00 AM 29.9379 46.5979 136° Southeast  Level FlightAware Approximate
Fri 10:15:00 AM 29.8374 46.7110 136° Southeast  Level FlightAware Approximate
Fri 10:16:00 AM 29.7367 46.8238 136° Southeast  Level FlightAware Approximate
Fri 10:17:00 AM 29.6360 46.9365 136° Southeast  Level FlightAware Approximate
Fri 10:18:00 AM 29.5352 47.0489 136° Southeast  Level FlightAware Approximate
Fri 10:19:00 AM 29.4343 47.1610 136° Southeast  Level FlightAware Approximate
Fri 10:20:00 AM 29.3333 47.2730 136° Southeast  Level FlightAware Approximate
Fri 10:21:00 AM 29.2322 47.3847 136° Southeast  Level FlightAware Approximate
Fri 10:22:00 AM 29.1310 47.4962 136° Southeast  Level FlightAware Approximate
Fri 10:23:00 AM 29.0297 47.6075 136° Southeast  Level FlightAware Approximate
Fri 10:24:00 AM 28.9283 47.7186 136° Southeast  Level FlightAware Approximate
Fri 10:25:00 AM 28.8269 47.8294 136° Southeast  Level FlightAware Approximate
Fri 10:26:00 AM 28.7253 47.9400 136° Southeast  Level FlightAware Approximate
Fri 10:27:00 AM 28.6237 48.0505 136° Southeast  Level FlightAware Approximate
Fri 10:28:00 AM 28.5219 48.1607 136° Southeast  Level FlightAware Approximate
Fri 10:29:00 AM 28.4201 48.2707 136° Southeast  Level FlightAware Approximate
Fri 10:30:00 AM 28.3182 48.3805 137° Southeast  Level FlightAware Approximate
Fri 10:31:00 AM 28.2162 48.4900 137° Southeast  Level FlightAware Approximate
Fri 10:32:00 AM 28.1141 48.5994 137° Southeast  Level FlightAware Approximate
Fri 10:33:00 AM 28.0119 48.7085 137° Southeast  Level FlightAware Approximate
Fri 10:34:00 AM 27.9097 48.8175 137° Southeast  Level FlightAware Approximate
Fri 10:35:00 AM 27.8073 48.9262 137° Southeast  Level FlightAware Approximate
Fri 10:36:00 AM 27.7049 49.0348 137° Southeast  Level FlightAware Approximate
Fri 10:37:00 AM 27.6024 49.1431 137° Southeast  Level FlightAware Approximate
Fri 10:38:00 AM 27.4998 49.2512 137° Southeast  Level FlightAware Approximate
Fri 10:39:00 AM 27.3971 49.3591 137° Southeast  Level FlightAware Approximate
Fri 10:40:00 AM 27.2943 49.4669 137° Southeast  Level FlightAware Approximate
Fri 10:41:00 AM 27.1915 49.5744 137° Southeast  Level FlightAware Approximate
Fri 10:42:00 AM 27.0886 49.6817 137° Southeast  Level FlightAware Approximate
Fri 10:43:00 AM 26.9855 49.7889 137° Southeast  Level FlightAware Approximate
Fri 10:44:00 AM 26.8825 49.8958 137° Southeast  Level FlightAware Approximate
Fri 10:45:00 AM 26.7793 50.0025 137° Southeast  Level FlightAware Approximate
Fri 10:46:00 AM 26.6810 50.1127 149° Southeast  Level FlightAware Approximate
Fri 10:47:00 AM 26.5760 50.2157 135° Southeast  Level FlightAware Approximate
Fri 10:48:00 AM 26.4744 50.3238 140° Southeast  Level FlightAware Approximate
Fri 10:49:00 AM 26.3665 50.4241 140° Southeast  Level FlightAware Approximate
Fri 10:50:00 AM 26.2591 50.5250 136° Southeast  Level FlightAware Approximate
Fri 10:51:00 AM 26.1588 50.6345 136° Southeast  Level FlightAware Approximate
Fri 10:52:00 AM 26.0574 50.7427 138° Southeast  Level FlightAware Approximate
Fri 10:53:00 AM 25.9530 50.8472 138° Southeast  Level FlightAware Approximate
Fri 10:54:00 AM 25.8485 50.9515 138° Southeast  Level FlightAware Approximate
Fri 10:55:00 AM 25.7442 51.0559 138° Southeast  Level FlightAware Approximate
Fri 10:56:00 AM 25.6436 51.1646 135° Southeast  Level FlightAware Approximate
Fri 10:57:00 AM 25.5433 51.2734 138° Southeast  Level FlightAware Approximate
Fri 10:58:00 AM 25.4321 51.3683 130° Southeast  Level FlightAware Approximate
Fri 10:59:00 AM 25.3303 51.4731 146° Southeast  Level FlightAware Approximate
Fri 11:00:00 AM 25.2500 51.5500 138° Southeast  Level FlightAware Approximate
Fri 11:01:00 AM 25.2611 51.5651 138° Southeast  Level Estimated
Fri 11:02:00 AM 25.2611 51.5651 138° Southeast  Level Estimated
Fri 11:03:00 AM 25.2611 51.5651 138° Southeast  Level Estimated
Fri 11:04:00 AM 25.2611 51.5651 138° Southeast  Level Estimated
Fri 11:05:00 AM 25.2611 51.5651 138° Southeast  Level Estimated
Fri 11:06:00 AM 25.2611 51.5651 138° Southeast  Level Estimated
Fri 11:07:00 AM 25.2611 51.5651 138° Southeast  Level Estimated
Fri 11:08:00 AM 25.2611 51.5651 138° Southeast  Level Estimated
Fri 11:09:00 AM 25.2611 51.5651 138° Southeast  Level Estimated
Fri 11:10:00 AM 25.2611 51.5651 138° Southeast  Level Estimated
Fri 11:11:00 AM 25.2611 51.5651 138° Southeast  Level Estimated
Fri 11:12:00 AM 25.2611 51.5651 138° Southeast  Level Estimated
Fri 11:13:00 AM 25.2611 51.5651 138° Southeast  Level Estimated
Fri 11:14:00 AM 25.2611 51.5651 138° Southeast  Level Estimated
Fri 11:15:00 AM 25.2611 51.5651 138° Southeast  Level Estimated
Fri 11:16:00 AM 25.2611 51.5651 138° Southeast  Level Estimated
Fri 11:17:00 AM 25.2611 51.5651 138° Southeast  Level Estimated
Fri 11:18:00 AM 25.2611 51.5651 138° Southeast  Level Estimated
Fri 11:19:00 AM 25.2611 51.5651 138° Southeast  Level Estimated
Fri 11:20:00 AM 25.2611 51.5651 138° Southeast  Level Estimated
Fri 11:21:00 AM 25.2611 51.5651 138° Southeast  Level Estimated
Fri 11:22:00 AM 25.2611 51.5651 138° Southeast  Level Estimated
Fri 11:23:00 AM 25.2611 51.5651 138° Southeast  Level Estimated
Fri 11:24:00 AM 25.2611 51.5651 138° Southeast  Level Estimated
Fri 11:25:00 AM 25.2611 51.5651 138° Southeast  Level Estimated
Fri 11:26:00 AM 25.2611 51.5651 138° Southeast  Level Estimated

Login

Don't have an account? Register now (free) for customized features, flight alerts, and more!